createdAt,value
2023-04-10T00:00:37.442Z,1233.00
2023-04-10T00:01:37.529Z,1236.00
2023-04-10T00:02:37.705Z,1225.00
2023-04-10T00:03:37.690Z,1231.00
2023-04-10T00:04:37.860Z,1227.00
2023-04-10T00:05:37.785Z,1220.00
2023-04-10T00:06:37.786Z,1220.00
2023-04-10T00:07:37.851Z,1215.00
2023-04-10T00:08:37.916Z,1224.00
2023-04-10T00:09:37.966Z,1226.00
2023-04-10T00:10:38.030Z,1223.00
2023-04-10T00:11:38.121Z,1213.00
2023-04-10T00:12:38.156Z,1224.00
2023-04-10T00:13:38.203Z,1224.00
2023-04-10T00:14:38.264Z,1212.00
2023-04-10T00:15:38.315Z,1208.00
2023-04-10T00:16:38.462Z,1213.00
2023-04-10T00:17:38.449Z,1229.00
2023-04-10T00:18:38.499Z,1214.00
2023-04-10T00:19:38.558Z,1197.00
2023-04-10T00:20:38.613Z,1209.00
2023-04-10T00:21:38.677Z,1212.00
2023-04-10T00:22:38.753Z,1212.00
2023-04-10T00:23:38.795Z,1220.00
2023-04-10T00:24:38.848Z,1198.00
2023-04-10T00:25:38.918Z,1208.00
2023-04-10T00:26:38.980Z,1204.00
2023-04-10T00:27:39.031Z,1198.00
2023-04-10T00:28:39.086Z,1203.00
2023-04-10T00:29:39.150Z,1204.00
2023-04-10T00:30:39.217Z,1207.00
2023-04-10T00:31:39.302Z,1206.00
2023-04-10T00:32:39.381Z,1198.00
2023-04-10T00:33:39.404Z,1215.00
2023-04-10T00:34:39.459Z,1193.00
2023-04-10T00:35:39.559Z,1203.00
2023-04-10T00:36:39.569Z,1202.00
2023-04-10T00:37:39.640Z,1189.00
2023-04-10T00:38:39.688Z,1192.00
2023-04-10T00:39:39.751Z,1207.00
2023-04-10T00:40:39.808Z,1194.00
2023-04-10T00:41:39.873Z,1203.00
2023-04-10T00:42:39.959Z,1186.00
2023-04-10T00:43:40.019Z,1198.00
2023-04-10T00:44:40.063Z,1190.00
2023-04-10T00:45:40.155Z,1197.00
2023-04-10T00:46:40.181Z,1190.00
2023-04-10T00:47:40.288Z,1185.00
2023-04-10T00:48:40.310Z,1190.00
2023-04-10T00:49:40.363Z,1186.00
2023-04-10T00:50:40.437Z,1187.00
2023-04-10T00:51:40.480Z,1184.00
2023-04-10T00:52:40.562Z,1185.00
2023-04-10T00:53:40.615Z,1182.00
2023-04-10T00:54:40.676Z,1173.00
2023-04-10T00:55:40.750Z,1199.00
2023-04-10T00:56:40.788Z,1188.00
2023-04-10T00:57:40.866Z,1171.00
2023-04-10T00:58:40.915Z,1183.00
2023-04-10T00:59:40.977Z,1171.00
2023-04-10T01:00:40.959Z,1172.00
2023-04-10T01:01:41.002Z,1174.00
2023-04-10T01:02:41.027Z,1174.00
2023-04-10T01:03:41.028Z,1175.00
2023-04-10T01:04:40.932Z,1180.00
2023-04-10T01:05:40.912Z,1178.00
2023-04-10T01:06:40.916Z,1175.00
2023-04-10T01:07:40.899Z,1165.00
2023-04-10T01:08:40.969Z,1174.00
2023-04-10T01:09:41.088Z,1175.00
2023-04-10T01:10:41.080Z,1170.00
2023-04-10T01:11:41.139Z,1156.00
2023-04-10T01:12:41.196Z,1170.00
2023-04-10T01:13:41.238Z,1173.00
2023-04-10T01:14:41.293Z,1163.00
2023-04-10T01:15:41.346Z,1165.00
2023-04-10T01:16:41.526Z,1160.00
2023-04-10T01:17:41.506Z,1170.00
2023-04-10T01:18:41.544Z,1163.00
2023-04-10T01:19:41.597Z,1164.00
2023-04-10T01:20:41.625Z,1155.00
2023-04-10T01:21:41.664Z,1156.00
2023-04-10T01:22:41.716Z,1157.00
2023-04-10T01:23:41.780Z,1171.00
2023-04-10T01:24:41.854Z,1146.00
2023-04-10T01:25:41.906Z,1155.00
2023-04-10T01:26:41.971Z,1158.00
2023-04-10T01:27:42.053Z,1157.00
2023-04-10T01:28:42.115Z,1146.00
2023-04-10T01:29:44.202Z,1163.00
2023-04-10T01:30:42.326Z,1148.00
2023-04-10T01:31:42.334Z,1140.00
2023-04-10T01:32:42.453Z,1148.00
2023-04-10T01:33:42.480Z,1148.00
2023-04-10T01:34:42.554Z,1155.00
2023-04-10T01:35:42.594Z,1135.00
2023-04-10T01:36:42.660Z,1150.00
2023-04-10T01:37:42.689Z,1147.00
2023-04-10T01:38:42.760Z,1150.00
2023-04-10T01:39:42.822Z,1145.00
2023-04-10T01:40:42.877Z,1133.00
2023-04-10T01:41:42.932Z,1139.00
2023-04-10T01:42:44.359Z,1131.00
2023-04-10T01:43:43.067Z,1140.00
2023-04-10T01:44:43.136Z,1147.00
2023-04-10T01:45:43.184Z,1140.00
2023-04-10T01:46:43.342Z,1126.00
2023-04-10T01:47:43.344Z,1147.00
2023-04-10T01:48:43.377Z,1122.00
2023-04-10T01:49:43.416Z,1147.00
2023-04-10T01:50:43.489Z,1137.00
2023-04-10T01:51:43.481Z,1138.00
2023-04-10T01:52:43.468Z,1137.00
2023-04-10T01:53:43.475Z,1137.00
2023-04-10T01:54:43.463Z,1142.00
2023-04-10T01:55:43.463Z,1138.00
2023-04-10T01:56:43.437Z,1129.00
2023-04-10T01:57:43.452Z,1117.00
2023-04-10T01:58:43.442Z,1123.00
2023-04-10T01:59:43.503Z,1147.00
2023-04-10T02:00:43.632Z,1137.00
2023-04-10T02:01:43.702Z,1121.00
2023-04-10T02:02:43.843Z,1129.00
2023-04-10T02:03:43.859Z,1104.00
2023-04-10T02:04:43.815Z,1107.00
2023-04-10T02:05:43.822Z,1128.00
2023-04-10T02:06:43.874Z,1133.00
2023-04-10T02:07:43.921Z,1117.00
2023-04-10T02:08:43.980Z,1124.00
2023-04-10T02:09:44.019Z,1112.00
2023-04-10T02:10:44.061Z,1131.00
2023-04-10T02:11:44.118Z,1111.00
2023-04-10T02:12:44.196Z,1119.00
2023-04-10T02:13:44.229Z,1128.00
2023-04-10T02:14:44.275Z,1117.00
2023-04-10T02:15:44.349Z,1110.00
2023-04-10T02:16:44.387Z,1113.00
2023-04-10T02:17:44.412Z,1114.00
2023-04-10T02:18:44.372Z,1117.00
2023-04-10T02:19:44.363Z,1117.00
2023-04-10T02:20:44.370Z,1117.00
2023-04-10T02:21:44.352Z,1114.00
2023-04-10T02:22:44.346Z,1115.00
2023-04-10T02:23:44.326Z,1113.00
2023-04-10T02:24:44.328Z,1117.00
2023-04-10T02:25:44.330Z,1118.00
2023-04-10T02:26:44.319Z,1108.00
2023-04-10T02:27:44.302Z,1118.00
2023-04-10T02:28:44.315Z,1114.00
2023-04-10T02:29:44.386Z,1111.00
2023-04-10T02:30:44.425Z,1117.00
2023-04-10T02:31:44.516Z,1109.00
2023-04-10T02:32:44.586Z,1116.00
2023-04-10T02:33:44.554Z,1119.00
2023-04-10T02:34:44.634Z,1097.00
2023-04-10T02:35:44.656Z,1104.00
2023-04-10T02:36:44.639Z,1104.00
2023-04-10T02:37:44.624Z,1105.00
2023-04-10T02:38:44.619Z,1100.00
2023-04-10T02:39:44.619Z,1096.00
2023-04-10T02:40:44.618Z,1086.00
2023-04-10T02:41:44.600Z,1095.00
2023-04-10T02:42:44.606Z,1102.00
2023-04-10T02:43:44.595Z,974.00
2023-04-10T02:44:44.620Z,948.00
2023-04-10T02:45:44.663Z,889.00
2023-04-10T02:46:44.751Z,804.00
2023-04-10T02:47:44.827Z,768.00
2023-04-10T02:48:44.849Z,704.00
2023-04-10T02:49:44.860Z,682.00
2023-04-10T02:50:44.861Z,658.00
2023-04-10T02:51:44.852Z,641.00
2023-04-10T02:52:44.840Z,606.00
2023-04-10T02:53:44.818Z,581.00
2023-04-10T02:54:44.828Z,549.00
2023-04-10T02:55:44.816Z,556.00
2023-04-10T02:56:44.813Z,531.00
2023-04-10T02:57:44.807Z,511.00
2023-04-10T02:58:44.796Z,497.00
2023-04-10T02:59:44.794Z,515.00
2023-04-10T03:00:44.794Z,497.00
2023-04-10T03:01:44.855Z,504.00
2023-04-10T03:02:45.242Z,508.00
2023-04-10T03:03:44.888Z,503.00
2023-04-10T03:04:44.800Z,508.00
2023-04-10T03:05:44.750Z,498.00
2023-04-10T03:06:44.769Z,501.00
2023-04-10T03:07:44.744Z,512.00
2023-04-10T03:08:44.771Z,500.00
2023-04-10T03:09:44.782Z,505.00
2023-04-10T03:10:44.751Z,500.00
2023-04-10T03:11:44.738Z,500.00
2023-04-10T03:12:44.737Z,498.00
2023-04-10T03:13:44.743Z,506.00
2023-04-10T03:14:44.747Z,493.00
2023-04-10T03:15:44.790Z,504.00
2023-04-10T03:16:44.729Z,514.00
2023-04-10T03:17:44.752Z,522.00
2023-04-10T03:18:44.721Z,526.00
2023-04-10T03:19:44.714Z,510.00
2023-04-10T03:20:45.333Z,522.00
2023-04-10T03:21:44.728Z,517.00
2023-04-10T03:22:44.735Z,508.00
2023-04-10T03:23:44.720Z,513.00
2023-04-10T03:24:44.721Z,510.00
2023-04-10T03:25:44.728Z,506.00
2023-04-10T03:26:44.733Z,518.00
2023-04-10T03:27:44.744Z,524.00
2023-04-10T03:28:44.722Z,534.00
2023-04-10T03:29:44.744Z,516.00
2023-04-10T03:30:44.757Z,507.00
2023-04-10T03:31:44.800Z,513.00
2023-04-10T03:32:44.781Z,498.00
2023-04-10T03:33:44.921Z,517.00
2023-04-10T03:34:44.805Z,506.00
2023-04-10T03:35:44.853Z,510.00
2023-04-10T03:36:44.831Z,485.00
2023-04-10T03:37:44.812Z,482.00
2023-04-10T03:38:44.833Z,472.00
2023-04-10T03:39:44.855Z,512.00
2023-04-10T03:40:44.820Z,514.00
2023-04-10T03:41:44.822Z,508.00
2023-04-10T03:42:44.849Z,510.00
2023-04-10T03:43:44.819Z,527.00
2023-04-10T03:44:44.846Z,527.00
2023-04-10T03:45:44.831Z,554.00
2023-04-10T03:46:44.869Z,547.00
2023-04-10T03:47:44.864Z,544.00
2023-04-10T03:48:44.826Z,556.00
2023-04-10T03:49:44.821Z,553.00
2023-04-10T03:50:44.828Z,563.00
2023-04-10T03:51:44.835Z,549.00
2023-04-10T03:52:44.825Z,554.00
2023-04-10T03:53:44.822Z,536.00
2023-04-10T03:54:44.859Z,533.00
2023-04-10T03:55:44.928Z,556.00
2023-04-10T03:56:44.911Z,560.00
2023-04-10T03:57:44.928Z,567.00
2023-04-10T03:58:44.989Z,559.00
2023-04-10T03:59:45.000Z,560.00
2023-04-10T04:00:45.042Z,553.00
2023-04-10T04:01:45.097Z,552.00
2023-04-10T04:02:45.288Z,537.00
2023-04-10T04:03:45.209Z,544.00
2023-04-10T04:04:45.267Z,533.00
2023-04-10T04:05:45.208Z,540.00
2023-04-10T04:06:45.236Z,549.00
2023-04-10T04:07:45.284Z,541.00
2023-04-10T04:08:45.318Z,538.00
2023-04-10T04:09:45.345Z,510.00
2023-04-10T04:10:45.387Z,511.00
2023-04-10T04:11:45.415Z,518.00
2023-04-10T04:12:45.457Z,515.00
2023-04-10T04:13:45.518Z,517.00
2023-04-10T04:14:45.541Z,515.00
2023-04-10T04:15:45.592Z,510.00
2023-04-10T04:16:45.691Z,500.00
2023-04-10T04:17:45.794Z,516.00
2023-04-10T04:18:45.739Z,518.00
2023-04-10T04:19:45.798Z,507.00
2023-04-10T04:20:45.798Z,507.00
2023-04-10T04:21:45.785Z,487.00
2023-04-10T04:22:45.799Z,506.00
2023-04-10T04:23:45.795Z,502.00
2023-04-10T04:24:45.802Z,507.00
2023-04-10T04:25:45.811Z,500.00
2023-04-10T04:26:45.798Z,473.00
2023-04-10T04:27:45.802Z,478.00
2023-04-10T04:28:45.797Z,492.00
2023-04-10T04:29:45.816Z,511.00
2023-04-10T04:30:45.821Z,496.00
2023-04-10T04:31:45.853Z,497.00
2023-04-10T04:32:45.846Z,510.00
2023-04-10T04:33:45.816Z,505.00
2023-04-10T04:34:45.817Z,528.00
2023-04-10T04:35:45.839Z,515.00
2023-04-10T04:36:45.802Z,519.00
2023-04-10T04:37:45.800Z,523.00
2023-04-10T04:38:45.858Z,532.00
2023-04-10T04:39:45.884Z,529.00
2023-04-10T04:40:45.943Z,541.00
2023-04-10T04:41:45.977Z,536.00
2023-04-10T04:42:46.027Z,532.00
2023-04-10T04:43:46.069Z,532.00
2023-04-10T04:44:46.114Z,527.00
2023-04-10T04:45:46.184Z,544.00
2023-04-10T04:46:46.230Z,552.00
2023-04-10T04:47:46.323Z,561.00
2023-04-10T04:48:46.317Z,552.00
2023-04-10T04:49:46.365Z,571.00
2023-04-10T04:50:46.449Z,572.00
2023-04-10T04:51:46.513Z,594.00
2023-04-10T04:52:46.514Z,600.00
2023-04-10T04:53:46.573Z,615.00
2023-04-10T04:54:46.636Z,625.00
2023-04-10T04:55:46.676Z,628.00
2023-04-10T04:56:46.729Z,646.00
2023-04-10T04:57:46.784Z,655.00
2023-04-10T04:58:46.852Z,656.00
2023-04-10T04:59:46.873Z,643.00
2023-04-10T05:00:46.931Z,644.00
2023-04-10T05:01:47.105Z,629.00
2023-04-10T05:02:47.087Z,615.00
2023-04-10T05:03:47.225Z,628.00
2023-04-10T05:04:47.139Z,628.00
2023-04-10T05:05:47.170Z,617.00
2023-04-10T05:06:47.217Z,607.00
2023-04-10T05:07:47.274Z,613.00
2023-04-10T05:08:47.334Z,615.00
2023-04-10T05:09:47.370Z,619.00
2023-04-10T05:10:47.437Z,623.00
2023-04-10T05:11:47.475Z,615.00
2023-04-10T05:12:47.531Z,605.00
2023-04-10T05:13:47.584Z,613.00
2023-04-10T05:14:47.639Z,617.00
2023-04-10T05:15:47.779Z,620.00
2023-04-10T05:16:47.764Z,629.00
2023-04-10T05:17:47.850Z,644.00
2023-04-10T05:18:47.898Z,652.00
2023-04-10T05:19:47.931Z,666.00
2023-04-10T05:20:48.002Z,695.00
2023-04-10T05:21:48.072Z,715.00
2023-04-10T05:22:48.111Z,706.00
2023-04-10T05:23:48.176Z,705.00
2023-04-10T05:24:48.216Z,679.00
2023-04-10T05:25:48.288Z,658.00
2023-04-10T05:26:48.330Z,684.00
2023-04-10T05:27:48.402Z,665.00
2023-04-10T05:28:48.456Z,668.00
2023-04-10T05:29:48.522Z,648.00
2023-04-10T05:30:48.628Z,642.00
2023-04-10T05:31:48.633Z,646.00
2023-04-10T05:32:48.719Z,648.00
2023-04-10T05:33:48.754Z,640.00
2023-04-10T05:34:48.824Z,628.00
2023-04-10T05:35:48.962Z,627.00
2023-04-10T05:36:48.902Z,623.00
2023-04-10T05:37:48.966Z,632.00
2023-04-10T05:38:49.022Z,642.00
2023-04-10T05:39:49.098Z,639.00
2023-04-10T05:40:49.138Z,645.00
2023-04-10T05:41:49.212Z,658.00
2023-04-10T05:42:49.248Z,682.00
2023-04-10T05:43:49.326Z,709.00
2023-04-10T05:44:49.374Z,730.00
2023-04-10T05:47:08.518Z,500.00
2023-04-10T05:48:08.538Z,500.00
2023-04-10T05:49:08.576Z,500.00
2023-04-10T05:50:08.618Z,500.00
2023-04-10T05:51:08.700Z,500.00
2023-04-10T05:52:08.686Z,500.00
2023-04-10T05:53:08.700Z,501.00
2023-04-10T05:54:08.712Z,505.00
2023-04-10T05:55:08.694Z,522.00
2023-04-10T05:56:08.718Z,524.00
2023-04-10T05:57:08.696Z,522.00
2023-04-10T05:58:08.685Z,525.00
2023-04-10T05:59:08.698Z,523.00
2023-04-10T06:00:08.679Z,535.00
2023-04-10T06:01:08.691Z,543.00
2023-04-10T06:02:08.815Z,543.00
2023-04-10T06:03:08.769Z,548.00
2023-04-10T06:04:08.859Z,545.00
2023-04-10T06:05:08.778Z,529.00
2023-04-10T06:06:08.754Z,549.00
2023-04-10T06:07:08.764Z,549.00
2023-04-10T06:08:08.762Z,552.00
2023-04-10T06:09:08.754Z,548.00
2023-04-10T06:10:08.766Z,553.00
2023-04-10T06:11:08.781Z,561.00
2023-04-10T06:12:08.778Z,574.00
2023-04-10T06:13:11.045Z,572.00
2023-04-10T06:14:08.787Z,575.00
2023-04-10T06:15:08.854Z,563.00
2023-04-10T06:16:08.868Z,566.00
2023-04-10T06:17:08.863Z,578.00
2023-04-10T06:18:08.854Z,590.00
2023-04-10T06:19:08.870Z,601.00
2023-04-10T06:20:08.876Z,598.00
2023-04-10T06:21:08.882Z,603.00
2023-04-10T06:22:08.881Z,609.00
2023-04-10T06:23:08.907Z,614.00
2023-04-10T06:24:09.654Z,614.00
2023-04-10T06:25:08.947Z,616.00
2023-04-10T06:26:08.908Z,613.00
2023-04-10T06:27:08.985Z,614.00
2023-04-10T06:28:08.934Z,624.00
2023-04-10T06:29:08.949Z,624.00
2023-04-10T06:30:08.979Z,626.00
2023-04-10T06:31:09.020Z,635.00
2023-04-10T06:32:09.009Z,623.00
2023-04-10T06:33:09.035Z,633.00
2023-04-10T06:34:08.998Z,650.00
2023-04-10T06:35:09.027Z,658.00
2023-04-10T06:36:09.032Z,663.00
2023-04-10T06:37:09.060Z,658.00
2023-04-10T06:38:09.036Z,661.00
2023-04-10T06:39:09.032Z,662.00
2023-04-10T06:40:09.054Z,685.00
2023-04-10T06:41:09.080Z,685.00
2023-04-10T06:42:09.072Z,662.00
2023-04-10T06:43:09.057Z,663.00
2023-04-10T06:44:09.026Z,663.00
2023-04-10T06:45:09.004Z,667.00
2023-04-10T06:46:08.976Z,670.00
2023-04-10T06:47:09.176Z,685.00
2023-04-10T06:48:08.955Z,687.00
2023-04-10T06:49:08.935Z,672.00
2023-04-10T06:50:08.895Z,667.00
2023-04-10T06:51:08.879Z,672.00
2023-04-10T06:52:08.852Z,673.00
2023-04-10T06:53:08.815Z,673.00
2023-04-10T06:54:08.826Z,663.00
2023-04-10T06:55:08.795Z,659.00
2023-04-10T06:56:08.759Z,658.00
2023-04-10T06:57:08.722Z,656.00
2023-04-10T06:58:08.672Z,655.00
2023-04-10T06:59:08.673Z,646.00
2023-04-10T07:00:08.622Z,634.00
2023-04-10T07:01:08.665Z,626.00
2023-04-10T07:02:08.667Z,622.00
2023-04-10T07:03:08.644Z,604.00
2023-04-10T07:04:08.796Z,590.00
2023-04-10T07:05:08.627Z,581.00
2023-04-10T07:06:08.590Z,571.00
2023-04-10T07:07:08.588Z,562.00
2023-04-10T07:08:08.536Z,557.00
2023-04-10T07:09:08.505Z,544.00
2023-04-10T07:10:08.454Z,528.00
2023-04-10T07:11:08.419Z,518.00
2023-04-10T07:12:08.441Z,513.00
2023-04-10T07:13:08.365Z,505.00
2023-04-10T07:14:08.334Z,501.00
2023-04-10T07:15:08.309Z,511.00
2023-04-10T07:16:08.346Z,506.00
2023-04-10T07:17:08.376Z,500.00
2023-04-10T07:18:08.422Z,500.00
2023-04-10T07:19:08.433Z,500.00
2023-04-10T07:20:08.450Z,500.00
2023-04-10T07:21:08.482Z,502.00
2023-04-10T07:22:08.494Z,500.00
2023-04-10T07:23:08.539Z,500.00
2023-04-10T07:24:08.561Z,501.00
2023-04-10T07:25:08.582Z,499.00
2023-04-10T07:26:08.585Z,501.00
2023-04-10T07:27:08.592Z,500.00
2023-04-10T07:28:08.599Z,500.00
2023-04-10T07:29:08.641Z,498.00
2023-04-10T07:30:08.688Z,500.00
2023-04-10T07:31:08.711Z,502.00
2023-04-10T07:32:08.802Z,501.00
2023-04-10T07:33:08.865Z,503.00
2023-04-10T07:34:08.768Z,500.00
2023-04-10T07:35:08.778Z,500.00
2023-04-10T07:36:08.895Z,500.00
2023-04-10T07:37:08.821Z,501.00
2023-04-10T07:38:08.837Z,500.00
2023-04-10T07:39:08.874Z,501.00
2023-04-10T07:40:08.898Z,500.00
2023-04-10T07:41:08.886Z,500.00
2023-04-10T07:42:08.893Z,500.00
2023-04-10T07:43:08.869Z,499.00
2023-04-10T07:44:08.881Z,500.00
2023-04-10T07:45:08.864Z,501.00
2023-04-10T07:46:08.941Z,499.00
2023-04-10T07:47:08.843Z,500.00
2023-04-10T07:48:08.839Z,502.00
2023-04-10T07:49:09.098Z,500.00
2023-04-10T07:50:08.772Z,500.00
2023-04-10T07:51:10.590Z,501.00
2023-04-10T07:52:08.731Z,500.00
2023-04-10T07:53:08.688Z,500.00
2023-04-10T07:54:08.665Z,502.00
2023-04-10T07:55:08.722Z,500.00
2023-04-10T07:56:08.640Z,502.00
2023-04-10T07:57:08.638Z,500.00
2023-04-10T07:58:08.651Z,500.00
2023-04-10T07:59:08.651Z,508.00
2023-04-10T08:00:08.631Z,511.00
2023-04-10T08:01:08.622Z,516.00
2023-04-10T08:02:08.646Z,518.00
2023-04-10T08:03:08.818Z,514.00
2023-04-10T08:04:08.733Z,512.00
2023-04-10T08:05:08.650Z,508.00
2023-04-10T08:06:08.573Z,500.00
2023-04-10T08:07:08.603Z,500.00
2023-04-10T08:08:08.583Z,502.00
2023-04-10T08:09:08.619Z,500.00
2023-04-10T08:10:08.579Z,504.00
2023-04-10T08:11:08.604Z,506.00
2023-04-10T08:12:08.631Z,501.00
2023-04-10T08:13:08.580Z,501.00
2023-04-10T08:14:08.538Z,501.00
2023-04-10T08:15:08.529Z,499.00
2023-04-10T08:16:08.477Z,506.00
2023-04-10T08:17:08.477Z,503.00
2023-04-10T08:18:08.465Z,500.00
2023-04-10T08:19:08.397Z,500.00
2023-04-10T08:20:08.375Z,500.00
2023-04-10T08:21:08.356Z,505.00
2023-04-10T08:22:08.324Z,505.00
2023-04-10T08:23:19.597Z,501.00
2023-04-10T08:24:09.256Z,495.00
2023-04-10T08:25:08.234Z,501.00
2023-04-10T08:26:08.181Z,493.00
2023-04-10T08:27:08.152Z,491.00
2023-04-10T08:28:08.131Z,490.00
2023-04-10T08:29:08.137Z,500.00
2023-04-10T08:30:08.068Z,500.00
2023-04-10T08:31:08.052Z,503.00
2023-04-10T08:32:08.002Z,509.00
2023-04-10T08:33:07.995Z,506.00
2023-04-10T08:34:07.969Z,500.00
2023-04-10T08:35:07.921Z,498.00
2023-04-10T08:36:07.943Z,505.00
2023-04-10T08:37:08.591Z,509.00
2023-04-10T08:38:14.178Z,506.00
2023-04-10T08:39:08.831Z,506.00
2023-04-10T08:40:07.781Z,508.00
2023-04-10T08:41:07.753Z,507.00
2023-04-10T08:42:07.748Z,510.00
2023-04-10T08:43:07.769Z,499.00
2023-04-10T08:44:07.661Z,523.00
2023-04-10T08:45:07.667Z,523.00
2023-04-10T08:46:07.629Z,526.00
2023-04-10T08:47:07.567Z,542.00
2023-04-10T08:48:07.561Z,581.00
2023-04-10T08:49:07.523Z,710.00
2023-04-10T08:50:07.474Z,837.00
2023-04-10T08:51:10.689Z,847.00
2023-04-10T08:52:08.421Z,850.00
2023-04-10T08:53:07.401Z,878.00
2023-04-10T08:54:07.340Z,952.00
2023-04-10T08:55:07.311Z,1089.00
2023-04-10T08:56:07.288Z,1341.00
2023-04-10T08:57:09.101Z,1333.00
2023-04-10T08:58:07.434Z,1395.00
2023-04-10T08:59:07.439Z,1400.00
2023-04-10T09:00:22.041Z,1378.00
2023-04-10T09:01:08.400Z,1380.00
2023-04-10T09:02:07.412Z,1389.00
2023-04-10T09:03:07.484Z,1403.00
2023-04-10T09:04:07.379Z,1463.00
2023-04-10T09:05:07.260Z,1558.00
2023-04-10T09:06:07.235Z,1659.00
2023-04-10T09:07:07.203Z,1696.00
2023-04-10T09:08:07.195Z,1744.00
2023-04-10T09:09:07.115Z,1782.00
2023-04-10T09:10:07.073Z,1899.00
2023-04-10T09:11:07.024Z,1954.00
2023-04-10T09:12:06.998Z,1998.00
2023-04-10T09:13:06.952Z,2045.00
2023-04-10T09:14:06.936Z,2130.00
2023-04-10T09:15:06.882Z,2158.00
2023-04-10T09:16:06.856Z,2181.00
2023-04-10T09:17:06.784Z,2227.00
2023-04-10T09:18:06.779Z,2234.00
2023-04-10T09:19:07.793Z,2299.00
2023-04-10T09:20:06.704Z,2359.00
2023-04-10T09:21:06.642Z,2400.00
2023-04-10T09:22:06.606Z,2402.00
2023-04-10T09:23:06.546Z,2408.00
2023-04-10T09:24:06.505Z,2425.00
2023-04-10T09:25:06.462Z,2462.00
2023-04-10T09:26:06.431Z,2545.00
2023-04-10T09:27:06.431Z,2576.00
2023-04-10T09:28:06.390Z,2577.00
2023-04-10T09:29:06.345Z,2572.00
2023-04-10T09:30:06.317Z,2569.00
2023-04-10T09:31:06.343Z,2623.00
2023-04-10T09:32:06.363Z,2648.00
2023-04-10T09:33:06.456Z,2676.00
2023-04-10T09:34:06.389Z,2690.00
2023-04-10T09:35:06.388Z,2698.00
2023-04-10T09:36:06.434Z,2708.00
2023-04-10T09:37:06.399Z,2747.00
2023-04-10T09:38:06.445Z,2780.00
2023-04-10T09:39:06.415Z,2770.00
2023-04-10T09:40:06.372Z,2772.00
2023-04-10T09:41:06.292Z,2778.00
2023-04-10T09:42:06.248Z,2789.00
2023-04-10T09:43:06.219Z,2810.00
2023-04-10T09:44:06.187Z,2882.00
2023-04-10T09:45:06.133Z,2899.00
2023-04-10T09:46:06.082Z,2934.00
2023-04-10T09:47:06.018Z,2949.00
2023-04-10T09:48:06.018Z,2961.00
2023-04-10T09:49:05.944Z,3005.00
2023-04-10T09:50:05.871Z,2973.00
2023-04-10T09:51:05.814Z,3006.00
2023-04-10T09:52:05.787Z,2989.00
2023-04-10T09:53:05.748Z,2990.00
2023-04-10T09:54:05.691Z,2993.00
2023-04-10T09:55:05.634Z,3004.00
2023-04-10T09:56:05.597Z,3023.00
2023-04-10T09:57:05.542Z,3057.00
2023-04-10T09:58:05.497Z,3083.00
2023-04-10T09:59:05.458Z,3070.00
2023-04-10T10:00:05.384Z,3067.00
2023-04-10T10:01:05.337Z,3094.00
2023-04-10T10:02:05.332Z,3081.00
2023-04-10T10:03:05.311Z,3091.00
2023-04-10T10:04:05.206Z,3122.00
2023-04-10T10:05:05.242Z,3108.00
2023-04-10T10:06:05.123Z,3120.00
2023-04-10T10:07:05.066Z,3116.00
2023-04-10T10:08:05.026Z,3141.00
2023-04-10T10:09:05.028Z,3137.00
2023-04-10T10:10:04.908Z,3137.00
2023-04-10T10:11:04.875Z,3138.00
2023-04-10T10:12:04.867Z,3142.00
2023-04-10T10:13:04.770Z,3137.00
2023-04-10T10:14:04.729Z,3174.00
2023-04-10T10:15:04.683Z,3165.00
2023-04-10T10:16:04.680Z,3158.00
2023-04-10T10:17:04.584Z,3196.00
2023-04-10T10:18:04.579Z,3179.00
2023-04-10T10:19:04.503Z,3184.00
2023-04-10T10:20:04.444Z,3189.00
2023-04-10T10:21:04.407Z,3172.00
2023-04-10T10:22:04.335Z,3183.00
2023-04-10T10:23:04.297Z,3174.00
2023-04-10T10:24:04.258Z,3191.00
2023-04-10T10:25:04.220Z,3196.00
2023-04-10T10:26:04.118Z,3196.00
2023-04-10T10:27:04.099Z,3189.00
2023-04-10T10:28:04.103Z,3214.00
2023-04-10T10:29:03.971Z,3210.00
2023-04-10T10:30:11.897Z,3206.00
2023-04-10T10:31:04.933Z,3207.00
2023-04-10T10:32:03.822Z,3209.00
2023-04-10T10:33:03.839Z,3213.00
2023-04-10T10:34:03.753Z,3222.00
2023-04-10T10:35:03.687Z,3226.00
2023-04-10T10:36:03.615Z,3233.00
2023-04-10T10:37:03.546Z,3235.00
2023-04-10T10:38:03.518Z,3214.00
2023-04-10T10:39:03.489Z,3229.00
2023-04-10T10:40:03.512Z,3217.00
2023-04-10T10:41:03.513Z,3231.00
2023-04-10T10:42:03.512Z,3234.00
2023-04-10T10:43:03.530Z,3219.00
2023-04-10T10:44:03.572Z,3234.00
2023-04-10T10:45:03.568Z,3232.00
2023-04-10T10:46:03.695Z,3213.00
2023-04-10T10:47:03.589Z,3225.00
2023-04-10T10:48:03.725Z,3225.00
2023-04-10T10:49:03.498Z,3229.00
2023-04-10T10:50:03.428Z,3229.00
2023-04-10T10:51:03.377Z,3244.00
2023-04-10T10:52:03.316Z,3242.00
2023-04-10T10:53:03.245Z,3243.00
2023-04-10T10:54:03.190Z,3245.00
2023-04-10T10:55:03.152Z,3254.00
2023-04-10T10:56:03.099Z,3239.00
2023-04-10T10:57:03.095Z,3235.00
2023-04-10T10:58:03.102Z,3220.00
2023-04-10T10:59:03.105Z,3234.00
2023-04-10T11:00:03.096Z,3235.00
2023-04-10T11:01:03.104Z,3232.00
2023-04-10T11:02:03.272Z,3225.00
2023-04-10T11:03:03.312Z,3238.00
2023-04-10T11:04:03.195Z,3219.00
2023-04-10T11:05:03.102Z,3227.00
2023-04-10T11:06:03.118Z,3222.00
2023-04-10T11:07:03.095Z,3220.00
2023-04-10T11:08:03.131Z,3230.00
2023-04-10T11:09:03.106Z,3215.00
2023-04-10T11:10:03.091Z,3226.00
2023-04-10T11:11:03.073Z,3220.00
2023-04-10T11:12:03.090Z,3229.00
2023-04-10T11:13:03.030Z,3230.00
2023-04-10T11:14:02.974Z,3231.00
2023-04-10T11:15:02.971Z,3231.00
2023-04-10T11:16:02.860Z,3232.00
2023-04-10T11:17:02.952Z,3230.00
2023-04-10T11:18:02.830Z,3242.00
2023-04-10T11:19:13.220Z,3228.00
2023-04-10T11:20:03.635Z,3230.00
2023-04-10T11:21:02.586Z,3231.00
2023-04-10T11:22:02.607Z,3232.00
2023-04-10T11:23:02.446Z,3230.00
2023-04-10T11:24:02.396Z,3236.00
2023-04-10T11:25:02.558Z,3230.00
2023-04-10T11:26:02.294Z,3231.00
2023-04-10T11:27:02.233Z,3232.00
2023-04-10T11:28:02.204Z,3232.00
2023-04-10T11:29:02.159Z,3236.00
2023-04-10T11:30:02.097Z,3242.00
2023-04-10T11:31:02.025Z,3237.00
2023-04-10T11:32:02.076Z,3229.00
2023-04-10T11:33:02.005Z,3231.00
2023-04-10T11:34:01.861Z,3224.00
2023-04-10T11:35:03.662Z,3222.00
2023-04-10T11:36:01.771Z,3235.00
2023-04-10T11:37:01.683Z,3218.00
2023-04-10T11:38:01.627Z,3220.00
2023-04-10T11:39:01.586Z,3221.00
2023-04-10T11:40:01.552Z,3220.00
2023-04-10T11:41:01.531Z,3218.00
2023-04-10T11:42:01.442Z,3217.00
2023-04-10T11:43:01.403Z,3227.00
2023-04-10T11:44:01.315Z,3206.00
2023-04-10T11:45:01.282Z,3221.00
2023-04-10T11:46:01.291Z,3213.00
2023-04-10T11:47:01.157Z,3192.00
2023-04-10T11:48:01.123Z,3194.00
2023-04-10T11:49:01.040Z,3192.00
2023-04-10T11:50:00.992Z,3202.00
2023-04-10T11:51:00.917Z,3203.00
2023-04-10T11:52:00.899Z,3202.00
2023-04-10T11:53:00.829Z,3204.00
2023-04-10T11:54:00.773Z,3206.00
2023-04-10T11:55:00.698Z,3217.00
2023-04-10T11:56:00.656Z,3209.00
2023-04-10T11:57:00.579Z,3193.00
2023-04-10T11:58:00.517Z,3200.00
2023-04-10T11:59:00.484Z,3194.00
2023-04-10T12:00:00.417Z,3195.00
2023-04-10T12:01:00.329Z,3195.00
2023-04-10T12:02:00.325Z,3196.00
2023-04-10T12:03:00.379Z,3198.00
2023-04-10T12:04:00.342Z,3195.00
2023-04-10T12:05:00.199Z,3209.00
2023-04-10T12:06:00.105Z,3203.00
2023-04-10T12:07:00.001Z,3213.00
2023-04-10T12:07:59.928Z,3205.00
2023-04-10T12:08:59.861Z,3196.00
2023-04-10T12:09:59.811Z,3197.00
2023-04-10T12:10:59.748Z,3195.00
2023-04-10T12:11:59.787Z,3194.00
2023-04-10T12:12:59.636Z,3191.00
2023-04-10T12:13:59.596Z,3194.00
2023-04-10T12:14:59.537Z,3189.00
2023-04-10T12:15:59.475Z,3185.00
2023-04-10T12:16:59.411Z,3187.00
2023-04-10T12:17:59.360Z,3178.00
2023-04-10T12:18:59.285Z,3189.00